sensor_id;sensor_type;location;lat;lon;timestamp;pressure;altitude;pressure_sealevel;temperature;humidity
55424;BME280;41294;42.666;23.350;2023-02-22T00:00:50;95002.09;;;8.66;56.09
55424;BME280;41294;42.666;23.350;2023-02-22T00:03:26;95012.09;;;8.46;56.96
55424;BME280;41294;42.666;23.350;2023-02-22T00:06:00;95014.91;;;8.39;57.08
55424;BME280;41294;42.666;23.350;2023-02-22T00:08:30;95016.28;;;8.31;57.41
55424;BME280;41294;42.666;23.350;2023-02-22T00:11:01;95019.66;;;8.32;58.15
55424;BME280;41294;42.666;23.350;2023-02-22T00:13:28;95010.44;;;8.15;58.66
55424;BME280;41294;42.666;23.350;2023-02-22T00:15:57;95010.06;;;8.13;58.31
55424;BME280;41294;42.666;23.350;2023-02-22T00:18:23;95016.69;;;8.05;59.14
55424;BME280;41294;42.666;23.350;2023-02-22T00:20:52;95017.81;;;7.92;59.50
55424;BME280;41294;42.666;23.350;2023-02-22T00:23:21;95012.22;;;7.77;59.88
55424;BME280;41294;42.666;23.350;2023-02-22T00:25:48;95015.91;;;7.80;60.16
55424;BME280;41294;42.666;23.350;2023-02-22T00:28:16;95015.19;;;7.79;60.22
55424;BME280;41294;42.666;23.350;2023-02-22T00:30:43;95007.69;;;7.65;60.47
55424;BME280;41294;42.666;23.350;2023-02-22T00:33:10;95001.84;;;7.74;60.03
55424;BME280;41294;42.666;23.350;2023-02-22T00:35:36;95000.59;;;7.78;59.49
55424;BME280;41294;42.666;23.350;2023-02-22T00:38:02;94996.38;;;7.56;60.36
55424;BME280;41294;42.666;23.350;2023-02-22T00:40:30;95002.19;;;7.47;61.65
55424;BME280;41294;42.666;23.350;2023-02-22T00:42:57;94999.19;;;7.49;60.69
55424;BME280;41294;42.666;23.350;2023-02-22T00:45:24;94993.97;;;7.33;61.52
55424;BME280;41294;42.666;23.350;2023-02-22T00:47:51;94999.03;;;7.28;61.76
55424;BME280;41294;42.666;23.350;2023-02-22T00:50:19;94989.03;;;7.23;61.83
55424;BME280;41294;42.666;23.350;2023-02-22T00:52:45;94985.38;;;7.20;62.10
55424;BME280;41294;42.666;23.350;2023-02-22T00:55:26;94991.97;;;6.96;63.35
55424;BME280;41294;42.666;23.350;2023-02-22T00:57:52;94986.75;;;6.96;62.96
55424;BME280;41294;42.666;23.350;2023-02-22T01:00:27;94981.03;;;6.85;63.49
55424;BME280;41294;42.666;23.350;2023-02-22T01:02:53;94975.28;;;6.90;63.97
55424;BME280;41294;42.666;23.350;2023-02-22T01:05:22;94978.69;;;6.75;64.73
55424;BME280;41294;42.666;23.350;2023-02-22T01:07:48;94973.38;;;6.78;64.29
55424;BME280;41294;42.666;23.350;2023-02-22T01:10:18;94972.56;;;6.65;64.86
55424;BME280;41294;42.666;23.350;2023-02-22T01:12:46;94965.69;;;6.71;64.01
55424;BME280;41294;42.666;23.350;2023-02-22T01:15:12;94966.66;;;6.77;64.43
55424;BME280;41294;42.666;23.350;2023-02-22T01:17:38;94969.22;;;6.65;65.01
55424;BME280;41294;42.666;23.350;2023-02-22T01:20:07;94966.38;;;6.59;64.58
55424;BME280;41294;42.666;23.350;2023-02-22T01:22:39;94966.84;;;6.54;64.96
55424;BME280;41294;42.666;23.350;2023-02-22T01:25:05;94963.75;;;6.59;65.42
55424;BME280;41294;42.666;23.350;2023-02-22T01:27:32;94965.84;;;6.64;65.07
55424;BME280;41294;42.666;23.350;2023-02-22T01:29:59;94964.81;;;6.46;65.38
55424;BME280;41294;42.666;23.350;2023-02-22T01:32:24;94959.59;;;6.46;66.29
55424;BME280;41294;42.666;23.350;2023-02-22T01:34:52;94958.94;;;6.42;65.78
55424;BME280;41294;42.666;23.350;2023-02-22T01:37:18;94956.75;;;6.41;65.98
55424;BME280;41294;42.666;23.350;2023-02-22T01:39:44;94959.09;;;6.35;66.41
55424;BME280;41294;42.666;23.350;2023-02-22T01:42:10;94965.72;;;6.40;66.13
55424;BME280;41294;42.666;23.350;2023-02-22T01:44:37;94959.34;;;6.25;67.15
55424;BME280;41294;42.666;23.350;2023-02-22T01:47:04;94963.09;;;6.40;66.66
55424;BME280;41294;42.666;23.350;2023-02-22T01:49:38;94970.16;;;6.27;66.52
55424;BME280;41294;42.666;23.350;2023-02-22T01:52:07;94964.75;;;6.18;66.50
55424;BME280;41294;42.666;23.350;2023-02-22T01:54:37;94966.69;;;6.14;66.64
55424;BME280;41294;42.666;23.350;2023-02-22T01:57:18;94967.03;;;6.16;67.71
55424;BME280;41294;42.666;23.350;2023-02-22T01:59:49;94973.91;;;6.10;67.54
55424;BME280;41294;42.666;23.350;2023-02-22T02:02:15;94960.50;;;6.08;67.62
55424;BME280;41294;42.666;23.350;2023-02-22T02:04:43;94963.66;;;5.99;68.35
55424;BME280;41294;42.666;23.350;2023-02-22T02:07:12;94969.31;;;5.98;68.08
55424;BME280;41294;42.666;23.350;2023-02-22T02:09:46;94964.50;;;6.12;68.25
55424;BME280;41294;42.666;23.350;2023-02-22T02:12:17;94973.63;;;6.04;68.09
55424;BME280;41294;42.666;23.350;2023-02-22T02:14:43;94973.22;;;6.06;68.07
55424;BME280;41294;42.666;23.350;2023-02-22T02:17:11;94970.53;;;5.93;68.25
55424;BME280;41294;42.666;23.350;2023-02-22T02:30:45;94982.53;;;5.91;69.20
55424;BME280;41294;42.666;23.350;2023-02-22T02:33:32;94982.97;;;5.86;68.99
55424;BME280;41294;42.666;23.350;2023-02-22T02:41:28;94985.03;;;5.75;70.12
55424;BME280;41294;42.666;23.350;2023-02-22T02:44:04;94983.34;;;5.68;70.23
55424;BME280;41294;42.666;23.350;2023-02-22T02:46:54;94980.72;;;5.68;69.79
55424;BME280;41294;42.666;23.350;2023-02-22T02:49:34;94996.38;;;5.68;69.69
55424;BME280;41294;42.666;23.350;2023-02-22T02:52:02;94993.53;;;5.63;70.39
55424;BME280;41294;42.666;23.350;2023-02-22T02:54:28;94998.06;;;5.59;70.39
55424;BME280;41294;42.666;23.350;2023-02-22T02:56:55;94998.13;;;5.56;70.59
55424;BME280;41294;42.666;23.350;2023-02-22T02:59:31;94985.63;;;5.47;71.01
55424;BME280;41294;42.666;23.350;2023-02-22T03:04:51;94999.22;;;5.39;71.32
55424;BME280;41294;42.666;23.350;2023-02-22T03:13:28;95001.41;;;5.40;71.61
55424;BME280;41294;42.666;23.350;2023-02-22T03:15:57;95001.63;;;5.30;71.92
55424;BME280;41294;42.666;23.350;2023-02-22T03:21:21;95000.97;;;5.26;71.51
55424;BME280;41294;42.666;23.350;2023-02-22T03:26:34;94988.16;;;5.31;72.08
55424;BME280;41294;42.666;23.350;2023-02-22T03:29:03;94993.38;;;5.31;71.81
55424;BME280;41294;42.666;23.350;2023-02-22T03:31:35;94993.88;;;5.26;72.28
55424;BME280;41294;42.666;23.350;2023-02-22T03:34:25;94988.31;;;5.24;72.50
55424;BME280;41294;42.666;23.350;2023-02-22T03:36:55;94996.75;;;5.12;72.99
55424;BME280;41294;42.666;23.350;2023-02-22T03:39:24;94992.72;;;5.27;72.88
55424;BME280;41294;42.666;23.350;2023-02-22T03:41:57;94991.97;;;5.27;72.25
55424;BME280;41294;42.666;23.350;2023-02-22T03:44:30;94997.59;;;5.25;72.47
55424;BME280;41294;42.666;23.350;2023-02-22T03:47:00;94985.91;;;5.33;72.32
55424;BME280;41294;42.666;23.350;2023-02-22T03:49:33;94992.59;;;5.34;72.25
55424;BME280;41294;42.666;23.350;2023-02-22T03:52:00;94992.03;;;5.23;72.49
55424;BME280;41294;42.666;23.350;2023-02-22T03:54:27;95000.22;;;5.25;72.71
55424;BME280;41294;42.666;23.350;2023-02-22T03:56:56;94996.00;;;5.31;72.58
55424;BME280;41294;42.666;23.350;2023-02-22T03:59:24;94991.25;;;5.46;72.23
55424;BME280;41294;42.666;23.350;2023-02-22T04:01:55;94984.97;;;5.43;72.17
55424;BME280;41294;42.666;23.350;2023-02-22T04:04:23;94990.97;;;5.40;73.01
55424;BME280;41294;42.666;23.350;2023-02-22T04:06:48;94988.50;;;5.33;73.28
55424;BME280;41294;42.666;23.350;2023-02-22T04:09:15;94984.50;;;5.29;73.53
55424;BME280;41294;42.666;23.350;2023-02-22T04:11:41;94978.69;;;5.21;73.88
55424;BME280;41294;42.666;23.350;2023-02-22T04:14:07;94994.41;;;5.37;73.33
55424;BME280;41294;42.666;23.350;2023-02-22T04:16:32;94994.75;;;5.39;73.27
55424;BME280;41294;42.666;23.350;2023-02-22T04:18:58;94997.09;;;5.34;73.37
55424;BME280;41294;42.666;23.350;2023-02-22T04:21:23;94989.53;;;5.39;73.09
55424;BME280;41294;42.666;23.350;2023-02-22T04:23:49;94996.94;;;5.41;73.19
55424;BME280;41294;42.666;23.350;2023-02-22T04:26:15;94991.78;;;5.37;72.88
55424;BME280;41294;42.666;23.350;2023-02-22T04:28:41;95002.22;;;5.37;73.09
55424;BME280;41294;42.666;23.350;2023-02-22T04:31:06;94999.69;;;5.34;73.02
55424;BME280;41294;42.666;23.350;2023-02-22T04:33:31;95004.09;;;5.37;73.69
55424;BME280;41294;42.666;23.350;2023-02-22T04:35:57;95005.50;;;5.41;73.37
55424;BME280;41294;42.666;23.350;2023-02-22T04:38:24;95001.94;;;5.51;73.29
55424;BME280;41294;42.666;23.350;2023-02-22T04:40:51;95001.72;;;5.62;72.92
55424;BME280;41294;42.666;23.350;2023-02-22T04:43:17;95000.56;;;5.47;73.42
55424;BME280;41294;42.666;23.350;2023-02-22T04:45:42;95004.03;;;5.60;72.68
55424;BME280;41294;42.666;23.350;2023-02-22T04:48:08;95001.28;;;5.67;72.40
55424;BME280;41294;42.666;23.350;2023-02-22T04:50:33;95000.06;;;5.71;72.69
55424;BME280;41294;42.666;23.350;2023-02-22T04:52:59;95001.47;;;5.75;72.45
55424;BME280;41294;42.666;23.350;2023-02-22T04:55:24;95000.94;;;5.65;71.93
55424;BME280;41294;42.666;23.350;2023-02-22T04:57:49;94996.59;;;5.39;73.41
55424;BME280;41294;42.666;23.350;2023-02-22T05:00:16;94999.69;;;5.34;73.13
55424;BME280;41294;42.666;23.350;2023-02-22T05:02:42;94998.28;;;5.29;73.82
55424;BME280;41294;42.666;23.350;2023-02-22T05:05:08;95005.44;;;5.25;74.07
55424;BME280;41294;42.666;23.350;2023-02-22T05:07:33;95002.38;;;5.30;73.78
55424;BME280;41294;42.666;23.350;2023-02-22T05:09:58;95008.59;;;5.17;74.46
55424;BME280;41294;42.666;23.350;2023-02-22T05:12:27;95011.06;;;5.24;74.13
55424;BME280;41294;42.666;23.350;2023-02-22T05:14:52;95016.28;;;5.24;74.45
55424;BME280;41294;42.666;23.350;2023-02-22T05:17:17;95014.72;;;5.07;74.60
55424;BME280;41294;42.666;23.350;2023-02-22T05:19:43;95015.25;;;5.18;74.64
55424;BME280;41294;42.666;23.350;2023-02-22T05:22:08;95015.38;;;5.11;75.20
55424;BME280;41294;42.666;23.350;2023-02-22T05:24:33;95016.78;;;5.15;74.77
55424;BME280;41294;42.666;23.350;2023-02-22T05:26:59;95015.56;;;5.00;75.32
55424;BME280;41294;42.666;23.350;2023-02-22T05:29:24;95019.66;;;5.01;75.43
55424;BME280;41294;42.666;23.350;2023-02-22T05:31:50;95026.84;;;5.36;74.57
55424;BME280;41294;42.666;23.350;2023-02-22T05:34:15;95032.91;;;6.07;72.36
55424;BME280;41294;42.666;23.350;2023-02-22T05:36:42;95030.97;;;7.35;67.13
55424;BME280;41294;42.666;23.350;2023-02-22T05:39:07;95038.63;;;8.36;63.29
55424;BME280;41294;42.666;23.350;2023-02-22T05:41:33;95044.22;;;8.97;60.30
55424;BME280;41294;42.666;23.350;2023-02-22T05:43:58;95037.97;;;9.49;57.77
55424;BME280;41294;42.666;23.350;2023-02-22T05:46:23;95035.56;;;10.06;56.25
55424;BME280;41294;42.666;23.350;2023-02-22T05:48:49;95042.91;;;10.42;54.54
55424;BME280;41294;42.666;23.350;2023-02-22T05:51:14;95050.19;;;10.38;54.48
55424;BME280;41294;42.666;23.350;2023-02-22T05:53:40;95041.47;;;10.50;53.85
55424;BME280;41294;42.666;23.350;2023-02-22T05:56:06;95043.44;;;10.76;53.22
55424;BME280;41294;42.666;23.350;2023-02-22T05:58:33;95046.00;;;11.15;52.52
55424;BME280;41294;42.666;23.350;2023-02-22T06:00:58;95050.00;;;11.55;51.43
55424;BME280;41294;42.666;23.350;2023-02-22T06:03:24;95053.22;;;11.86;50.50
55424;BME280;41294;42.666;23.350;2023-02-22T06:05:49;95051.41;;;12.10;49.10
55424;BME280;41294;42.666;23.350;2023-02-22T06:08:15;95049.00;;;12.30;49.22
55424;BME280;41294;42.666;23.350;2023-02-22T06:10:42;95051.56;;;12.57;48.11
55424;BME280;41294;42.666;23.350;2023-02-22T06:13:08;95052.72;;;12.97;46.92
55424;BME280;41294;42.666;23.350;2023-02-22T06:15:33;95048.16;;;12.98;47.32
55424;BME280;41294;42.666;23.350;2023-02-22T06:17:59;95050.28;;;13.69;45.75
55424;BME280;41294;42.666;23.350;2023-02-22T06:20:27;95049.50;;;14.06;44.65
55424;BME280;41294;42.666;23.350;2023-02-22T06:22:54;95042.75;;;14.20;43.99
55424;BME280;41294;42.666;23.350;2023-02-22T06:25:22;95042.41;;;14.12;43.98
55424;BME280;41294;42.666;23.350;2023-02-22T06:27:50;95038.66;;;13.52;44.74
55424;BME280;41294;42.666;23.350;2023-02-22T06:30:19;95036.84;;;13.58;45.41
55424;BME280;41294;42.666;23.350;2023-02-22T06:32:44;95041.09;;;13.79;44.69
55424;BME280;41294;42.666;23.350;2023-02-22T06:35:10;95041.28;;;13.90;44.95
55424;BME280;41294;42.666;23.350;2023-02-22T06:37:36;95043.09;;;13.98;43.86
55424;BME280;41294;42.666;23.350;2023-02-22T06:40:03;95041.47;;;14.44;43.50
55424;BME280;41294;42.666;23.350;2023-02-22T06:42:28;95048.00;;;14.78;42.51
55424;BME280;41294;42.666;23.350;2023-02-22T06:44:53;95045.22;;;14.86;43.03
55424;BME280;41294;42.666;23.350;2023-02-22T06:47:19;95048.06;;;15.37;41.50
55424;BME280;41294;42.666;23.350;2023-02-22T06:49:44;95045.28;;;15.66;40.46
55424;BME280;41294;42.666;23.350;2023-02-22T06:52:09;95045.28;;;15.26;40.82
55424;BME280;41294;42.666;23.350;2023-02-22T06:54:36;95049.22;;;15.76;40.15
55424;BME280;41294;42.666;23.350;2023-02-22T06:57:02;95044.75;;;16.38;39.17
55424;BME280;41294;42.666;23.350;2023-02-22T06:59:28;95045.97;;;16.73;38.24
55424;BME280;41294;42.666;23.350;2023-02-22T07:01:53;95039.97;;;16.17;38.85
55424;BME280;41294;42.666;23.350;2023-02-22T07:04:19;95030.66;;;16.99;37.45
55424;BME280;41294;42.666;23.350;2023-02-22T07:06:46;95039.41;;;16.69;37.79
55424;BME280;41294;42.666;23.350;2023-02-22T07:09:12;95037.53;;;16.75;36.97
55424;BME280;41294;42.666;23.350;2023-02-22T07:11:38;95035.38;;;16.43;37.75
55424;BME280;41294;42.666;23.350;2023-02-22T07:14:04;95034.00;;;15.96;38.44
55424;BME280;41294;42.666;23.350;2023-02-22T07:16:29;95034.88;;;16.13;37.77
55424;BME280;41294;42.666;23.350;2023-02-22T07:18:54;95037.31;;;15.46;39.11
55424;BME280;41294;42.666;23.350;2023-02-22T07:21:20;95048.00;;;14.78;40.00
55424;BME280;41294;42.666;23.350;2023-02-22T07:23:50;95049.31;;;15.62;38.90
55424;BME280;41294;42.666;23.350;2023-02-22T07:26:16;95056.25;;;16.55;37.35
55424;BME280;41294;42.666;23.350;2023-02-22T07:28:41;95046.53;;;16.52;37.19
55424;BME280;41294;42.666;23.350;2023-02-22T07:31:06;95052.13;;;14.98;38.89
55424;BME280;41294;42.666;23.350;2023-02-22T07:33:32;95051.16;;;15.36;38.85
55424;BME280;41294;42.666;23.350;2023-02-22T07:35:57;95049.03;;;13.41;42.15
55424;BME280;41294;42.666;23.350;2023-02-22T07:38:23;95048.72;;;14.64;41.37
55424;BME280;41294;42.666;23.350;2023-02-22T07:40:49;95037.38;;;15.97;38.56
55424;BME280;41294;42.666;23.350;2023-02-22T07:43:18;95034.84;;;17.11;36.80
55424;BME280;41294;42.666;23.350;2023-02-22T07:45:44;95022.38;;;18.24;34.99
55424;BME280;41294;42.666;23.350;2023-02-22T07:48:11;95024.75;;;18.06;35.26
55424;BME280;41294;42.666;23.350;2023-02-22T07:50:36;95023.75;;;18.97;34.02
55424;BME280;41294;42.666;23.350;2023-02-22T07:53:05;95033.22;;;18.92;33.49
55424;BME280;41294;42.666;23.350;2023-02-22T07:55:31;95031.34;;;18.43;34.40
55424;BME280;41294;42.666;23.350;2023-02-22T07:58:00;95030.38;;;18.35;34.31
55424;BME280;41294;42.666;23.350;2023-02-22T08:02:51;95027.88;;;19.14;33.28
55424;BME280;41294;42.666;23.350;2023-02-22T08:05:18;95025.94;;;20.17;32.11
55424;BME280;41294;42.666;23.350;2023-02-22T08:07:44;95032.06;;;18.22;34.05
55424;BME280;41294;42.666;23.350;2023-02-22T08:10:12;95015.78;;;18.80;33.96
55424;BME280;41294;42.666;23.350;2023-02-22T08:12:37;95025.22;;;17.88;34.84
55424;BME280;41294;42.666;23.350;2023-02-22T08:15:04;95024.25;;;17.22;35.80
55424;BME280;41294;42.666;23.350;2023-02-22T08:17:31;95007.09;;;18.52;34.98
55424;BME280;41294;42.666;23.350;2023-02-22T08:19:56;95010.75;;;20.30;32.27
55424;BME280;41294;42.666;23.350;2023-02-22T08:22:21;95019.16;;;17.77;34.73
55424;BME280;41294;42.666;23.350;2023-02-22T08:24:48;95019.25;;;17.40;36.08
55424;BME280;41294;42.666;23.350;2023-02-22T08:27:13;95017.16;;;17.66;35.64
55424;BME280;41294;42.666;23.350;2023-02-22T08:29:39;95016.06;;;18.38;34.78
55424;BME280;41294;42.666;23.350;2023-02-22T08:32:04;95003.09;;;19.19;33.65
55424;BME280;41294;42.666;23.350;2023-02-22T08:34:30;95009.31;;;17.30;36.00
55424;BME280;41294;42.666;23.350;2023-02-22T08:36:55;95009.75;;;18.30;35.64
55424;BME280;41294;42.666;23.350;2023-02-22T08:39:21;95012.03;;;20.53;32.27
55424;BME280;41294;42.666;23.350;2023-02-22T08:41:46;95012.66;;;22.28;30.59
55424;BME280;41294;42.666;23.350;2023-02-22T08:44:12;94999.59;;;22.06;29.36
55424;BME280;41294;42.666;23.350;2023-02-22T08:46:37;94997.28;;;19.15;32.95
55424;BME280;41294;42.666;23.350;2023-02-22T08:49:03;95003.13;;;20.10;32.79
55424;BME280;41294;42.666;23.350;2023-02-22T08:51:34;94997.84;;;21.11;31.91
55424;BME280;41294;42.666;23.350;2023-02-22T08:53:59;95000.84;;;22.18;29.93
55424;BME280;41294;42.666;23.350;2023-02-22T08:56:24;94999.94;;;23.04;29.54
55424;BME280;41294;42.666;23.350;2023-02-22T08:58:50;94982.75;;;22.68;29.18
55424;BME280;41294;42.666;23.350;2023-02-22T09:01:15;94986.16;;;23.59;28.80
55424;BME280;41294;42.666;23.350;2023-02-22T09:03:40;94985.28;;;24.10;28.32
55424;BME280;41294;42.666;23.350;2023-02-22T09:06:06;94980.50;;;25.33;27.22
55424;BME280;41294;42.666;23.350;2023-02-22T09:08:32;94983.84;;;24.91;27.41
55424;BME280;41294;42.666;23.350;2023-02-22T09:10:57;94976.03;;;25.08;27.40
55424;BME280;41294;42.666;23.350;2023-02-22T09:13:22;94974.19;;;24.75;27.68
55424;BME280;41294;42.666;23.350;2023-02-22T09:15:48;94978.66;;;24.73;28.00
55424;BME280;41294;42.666;23.350;2023-02-22T09:18:13;94979.19;;;24.71;27.73
55424;BME280;41294;42.666;23.350;2023-02-22T09:20:39;94973.03;;;24.43;27.35
55424;BME280;41294;42.666;23.350;2023-02-22T09:23:05;94975.59;;;23.74;28.36
55424;BME280;41294;42.666;23.350;2023-02-22T09:25:31;94969.06;;;23.70;28.29
55424;BME280;41294;42.666;23.350;2023-02-22T09:27:58;94973.34;;;23.99;28.42
55424;BME280;41294;42.666;23.350;2023-02-22T09:30:29;94968.56;;;24.66;27.96
55424;BME280;41294;42.666;23.350;2023-02-22T09:33:13;94970.69;;;24.60;27.72
55424;BME280;41294;42.666;23.350;2023-02-22T09:35:41;94961.84;;;24.39;27.81
55424;BME280;41294;42.666;23.350;2023-02-22T09:38:11;94963.38;;;23.73;28.43
55424;BME280;41294;42.666;23.350;2023-02-22T09:40:40;94959.03;;;24.65;27.62
55424;BME280;41294;42.666;23.350;2023-02-22T09:48:49;94950.56;;;23.66;28.43
55424;BME280;41294;42.666;23.350;2023-02-22T09:51:17;94952.72;;;24.01;27.99
55424;BME280;41294;42.666;23.350;2023-02-22T09:53:45;94953.72;;;23.44;28.05
55424;BME280;41294;42.666;23.350;2023-02-22T09:56:15;94955.19;;;23.32;28.63
55424;BME280;41294;42.666;23.350;2023-02-22T09:58:47;94949.63;;;23.05;28.95
55424;BME280;41294;42.666;23.350;2023-02-22T10:01:42;94955.16;;;23.45;28.27
55424;BME280;41294;42.666;23.350;2023-02-22T10:04:38;94943.13;;;23.59;28.39
55424;BME280;41294;42.666;23.350;2023-02-22T10:07:38;94936.00;;;24.15;27.41
55424;BME280;41294;42.666;23.350;2023-02-22T10:10:05;94942.75;;;24.09;28.25
55424;BME280;41294;42.666;23.350;2023-02-22T10:17:35;94919.16;;;23.95;28.31
55424;BME280;41294;42.666;23.350;2023-02-22T10:25:50;94905.50;;;23.00;28.95
55424;BME280;41294;42.666;23.350;2023-02-22T10:28:21;94906.53;;;23.23;28.77
55424;BME280;41294;42.666;23.350;2023-02-22T10:30:54;94897.47;;;23.13;28.92
55424;BME280;41294;42.666;23.350;2023-02-22T10:33:26;94895.94;;;23.38;28.38
55424;BME280;41294;42.666;23.350;2023-02-22T10:35:54;94890.81;;;23.60;28.12
55424;BME280;41294;42.666;23.350;2023-02-22T10:38:28;94882.47;;;22.92;28.28
55424;BME280;41294;42.666;23.350;2023-02-22T10:43:39;94875.00;;;23.23;28.99
55424;BME280;41294;42.666;23.350;2023-02-22T10:46:10;94870.44;;;23.31;28.87
55424;BME280;41294;42.666;23.350;2023-02-22T10:48:38;94865.56;;;22.84;29.39
55424;BME280;41294;42.666;23.350;2023-02-22T10:51:06;94860.69;;;22.95;29.04
55424;BME280;41294;42.666;23.350;2023-02-22T10:53:33;94858.13;;;22.38;29.72
55424;BME280;41294;42.666;23.350;2023-02-22T10:56:12;94851.28;;;23.02;29.49
55424;BME280;41294;42.666;23.350;2023-02-22T11:04:16;94847.19;;;22.62;28.58
55424;BME280;41294;42.666;23.350;2023-02-22T11:06:44;94844.44;;;21.97;30.40
55424;BME280;41294;42.666;23.350;2023-02-22T11:11:40;94842.75;;;23.23;29.37
55424;BME280;41294;42.666;23.350;2023-02-22T11:14:06;94835.75;;;23.74;28.55
55424;BME280;41294;42.666;23.350;2023-02-22T11:17:07;94831.97;;;23.90;28.43
55424;BME280;41294;42.666;23.350;2023-02-22T11:19:33;94819.28;;;23.98;28.01
55424;BME280;41294;42.666;23.350;2023-02-22T11:24:28;94824.28;;;23.94;28.30
55424;BME280;41294;42.666;23.350;2023-02-22T11:26:59;94816.09;;;23.79;28.55
55424;BME280;41294;42.666;23.350;2023-02-22T11:29:28;94812.78;;;23.73;28.83
55424;BME280;41294;42.666;23.350;2023-02-22T11:32:10;94816.97;;;24.02;28.05
55424;BME280;41294;42.666;23.350;2023-02-22T11:34:39;94813.66;;;23.89;28.04
55424;BME280;41294;42.666;23.350;2023-02-22T11:39:47;94801.31;;;23.93;28.15
55424;BME280;41294;42.666;23.350;2023-02-22T11:42:26;94798.03;;;23.46;28.11
55424;BME280;41294;42.666;23.350;2023-02-22T11:45:19;94788.34;;;22.64;29.31
55424;BME280;41294;42.666;23.350;2023-02-22T11:47:54;94791.34;;;22.09;29.24
55424;BME280;41294;42.666;23.350;2023-02-22T11:50:38;94794.41;;;22.13;29.98
55424;BME280;41294;42.666;23.350;2023-02-22T12:01:13;94780.63;;;23.07;28.37
55424;BME280;41294;42.666;23.350;2023-02-22T12:11:51;94776.06;;;23.02;28.06
55424;BME280;41294;42.666;23.350;2023-02-22T12:20:50;94765.47;;;23.29;27.24
55424;BME280;41294;42.666;23.350;2023-02-22T12:25:57;94761.72;;;22.53;28.08
55424;BME280;41294;42.666;23.350;2023-02-22T12:28:31;94756.13;;;22.64;27.95
55424;BME280;41294;42.666;23.350;2023-02-22T12:31:22;94747.56;;;22.99;27.60
55424;BME280;41294;42.666;23.350;2023-02-22T12:33:59;94753.19;;;22.88;28.32
55424;BME280;41294;42.666;23.350;2023-02-22T12:36:42;94755.75;;;22.47;28.16
55424;BME280;41294;42.666;23.350;2023-02-22T12:39:45;94742.50;;;22.75;28.12
55424;BME280;41294;42.666;23.350;2023-02-22T12:42:25;94740.59;;;22.83;27.57
55424;BME280;41294;42.666;23.350;2023-02-22T12:45:01;94745.94;;;22.49;28.07
55424;BME280;41294;42.666;23.350;2023-02-22T12:47:35;94741.53;;;22.39;28.55
55424;BME280;41294;42.666;23.350;2023-02-22T12:50:11;94737.78;;;22.16;28.56
55424;BME280;41294;42.666;23.350;2023-02-22T12:52:44;94733.66;;;22.28;28.53
55424;BME280;41294;42.666;23.350;2023-02-22T12:55:27;94737.91;;;21.85;28.98
55424;BME280;41294;42.666;23.350;2023-02-22T13:01:02;94736.53;;;21.65;29.19
55424;BME280;41294;42.666;23.350;2023-02-22T13:03:42;94734.50;;;21.84;28.94
55424;BME280;41294;42.666;23.350;2023-02-22T13:12:03;94720.78;;;21.62;29.19
55424;BME280;41294;42.666;23.350;2023-02-22T13:22:51;94722.69;;;21.49;29.18
55424;BME280;41294;42.666;23.350;2023-02-22T13:25:32;94721.47;;;21.18;29.19
55424;BME280;41294;42.666;23.350;2023-02-22T13:30:45;94722.78;;;21.12;29.49
55424;BME280;41294;42.666;23.350;2023-02-22T13:47:22;94711.81;;;20.23;30.75
55424;BME280;41294;42.666;23.350;2023-02-22T13:52:56;94708.25;;;19.97;31.23
55424;BME280;41294;42.666;23.350;2023-02-22T13:55:29;94716.72;;;20.01;31.70
55424;BME280;41294;42.666;23.350;2023-02-22T13:58:08;94713.94;;;19.88;32.03
55424;BME280;41294;42.666;23.350;2023-02-22T14:03:30;94725.44;;;19.54;32.04
55424;BME280;41294;42.666;23.350;2023-02-22T14:06:00;94710.38;;;19.56;32.18
55424;BME280;41294;42.666;23.350;2023-02-22T14:11:02;94709.19;;;19.22;32.70
55424;BME280;41294;42.666;23.350;2023-02-22T14:16:30;94707.28;;;19.23;33.03
55424;BME280;41294;42.666;23.350;2023-02-22T14:19:04;94713.91;;;19.11;33.44
55424;BME280;41294;42.666;23.350;2023-02-22T14:21:54;94719.25;;;19.11;33.15
55424;BME280;41294;42.666;23.350;2023-02-22T14:24:20;94716.31;;;19.09;33.39
55424;BME280;41294;42.666;23.350;2023-02-22T14:27:12;94718.53;;;19.10;33.50
55424;BME280;41294;42.666;23.350;2023-02-22T14:30:20;94714.66;;;19.06;33.50
55424;BME280;41294;42.666;23.350;2023-02-22T14:32:50;94714.50;;;18.93;33.83
55424;BME280;41294;42.666;23.350;2023-02-22T14:35:17;94712.22;;;19.08;33.72
55424;BME280;41294;42.666;23.350;2023-02-22T14:37:50;94708.38;;;19.03;33.62
55424;BME280;41294;42.666;23.350;2023-02-22T14:40:29;94703.47;;;19.07;33.64
55424;BME280;41294;42.666;23.350;2023-02-22T14:45:29;94705.31;;;18.89;33.30
55424;BME280;41294;42.666;23.350;2023-02-22T14:48:00;94703.09;;;18.98;33.37
55424;BME280;41294;42.666;23.350;2023-02-22T14:55:42;94708.72;;;18.89;33.71
55424;BME280;41294;42.666;23.350;2023-02-22T14:58:18;94708.53;;;18.82;33.59
55424;BME280;41294;42.666;23.350;2023-02-22T15:00:46;94704.53;;;18.64;32.75
55424;BME280;41294;42.666;23.350;2023-02-22T15:03:30;94706.25;;;18.56;32.86
55424;BME280;41294;42.666;23.350;2023-02-22T15:06:15;94710.19;;;18.50;33.21
55424;BME280;41294;42.666;23.350;2023-02-22T15:08:41;94708.47;;;18.52;33.12
55424;BME280;41294;42.666;23.350;2023-02-22T15:11:28;94710.28;;;18.33;33.35
55424;BME280;41294;42.666;23.350;2023-02-22T15:13:59;94702.00;;;18.37;33.44
55424;BME280;41294;42.666;23.350;2023-02-22T15:16:27;94714.06;;;18.49;33.54
55424;BME280;41294;42.666;23.350;2023-02-22T15:18:56;94710.50;;;18.35;34.20
55424;BME280;41294;42.666;23.350;2023-02-22T15:21:24;94707.59;;;18.33;34.73
55424;BME280;41294;42.666;23.350;2023-02-22T15:23:53;94708.38;;;18.28;35.26
55424;BME280;41294;42.666;23.350;2023-02-22T15:26:30;94711.03;;;18.28;35.49
55424;BME280;41294;42.666;23.350;2023-02-22T15:29:00;94714.22;;;18.16;35.81
55424;BME280;41294;42.666;23.350;2023-02-22T15:33:52;94713.56;;;17.94;36.68